<?xml version="1.0" encoding="UTF-8" standalone="no" ?>
<gpx xmlns="http://www.topografix.com/GPX/1/1" xmlns:xsi="http://www.w3.org/2001/XMLSchema-instance" xsi:schemaLocation="http://www.topografix.com/GPX/1/1 http://www.topografix.com/GPX/1/1/gpx.xsd" version="1.1" creator="VisuGPX - https://www.visugpx.com">
  <metadata>
    <name>Vacances 2021</name>
  </metadata>
  <trk>
    <name><![CDATA[Journal actif: 2021-07-31 14:16]]></name>
    <trkseg>
      <trkpt lat="48.68463" lon="-1.967">
        <ele>40.03</ele>
        <time>2021-07-31T16:16:05Z</time>
      </trkpt>
      <trkpt lat="48.68462" lon="-1.967">
        <ele>39.07</ele>
        <time>2021-07-31T16:16:27Z</time>
      </trkpt>
      <trkpt lat="48.68462" lon="-1.96701">
        <ele>38.59</ele>
        <time>2021-07-31T16:18:41Z</time>
      </trkpt>
      <trkpt lat="48.6846" lon="-1.96692">
        <ele>39.07</ele>
        <time>2021-07-31T16:19:52Z</time>
      </trkpt>
      <trkpt lat="48.68458" lon="-1.9669">
        <ele>39.07</ele>
        <time>2021-07-31T16:19:56Z</time>
      </trkpt>
      <trkpt lat="48.68455" lon="-1.96681">
        <ele>39.07</ele>
        <time>2021-07-31T16:20:11Z</time>
      </trkpt>
      <trkpt lat="48.6844" lon="-1.9666">
        <ele>38.59</ele>
        <time>2021-07-31T16:20:20Z</time>
      </trkpt>
      <trkpt lat="48.68404" lon="-1.96619">
        <ele>37.15</ele>
        <time>2021-07-31T16:20:37Z</time>
      </trkpt>
      <trkpt lat="48.68395" lon="-1.96609">
        <ele>35.71</ele>
        <time>2021-07-31T16:20:46Z</time>
      </trkpt>
      <trkpt lat="48.68391" lon="-1.96606">
        <ele>35.71</ele>
        <time>2021-07-31T16:20:47Z</time>
      </trkpt>
      <trkpt lat="48.6839" lon="-1.96608">
        <ele>35.71</ele>
        <time>2021-07-31T16:20:48Z</time>
      </trkpt>
      <trkpt lat="48.68388" lon="-1.9661">
        <ele>35.23</ele>
        <time>2021-07-31T16:20:49Z</time>
      </trkpt>
      <trkpt lat="48.68387" lon="-1.96612">
        <ele>34.74</ele>
        <time>2021-07-31T16:20:50Z</time>
      </trkpt>
      <trkpt lat="48.68385" lon="-1.96615">
        <ele>34.74</ele>
        <time>2021-07-31T16:20:51Z</time>
      </trkpt>
      <trkpt lat="48.68382" lon="-1.96617">
        <ele>34.26</ele>
        <time>2021-07-31T16:20:52Z</time>
      </trkpt>
      <trkpt lat="48.68336" lon="-1.96674">
        <ele>31.38</ele>
        <time>2021-07-31T16:21:06Z</time>
      </trkpt>
      <trkpt lat="48.68305" lon="-1.96697">
        <ele>29.94</ele>
        <time>2021-07-31T16:21:14Z</time>
      </trkpt>
      <trkpt lat="48.68301" lon="-1.96699">
        <ele>29.94</ele>
        <time>2021-07-31T16:21:15Z</time>
      </trkpt>
      <trkpt lat="48.68297" lon="-1.96713">
        <ele>29.94</ele>
        <time>2021-07-31T16:21:16Z</time>
      </trkpt>
      <trkpt lat="48.68296" lon="-1.96726">
        <ele>29.46</ele>
        <time>2021-07-31T16:21:17Z</time>
      </trkpt>
      <trkpt lat="48.68296" lon="-1.96726">
        <ele>29.46</ele>
        <time>2021-07-31T16:21:18Z</time>
      </trkpt>
      <trkpt lat="48.68295" lon="-1.96733">
        <ele>28.98</ele>
        <time>2021-07-31T16:21:19Z</time>
      </trkpt>
      <trkpt lat="48.68289" lon="-1.96771">
        <ele>28.98</ele>
        <time>2021-07-31T16:21:26Z</time>
      </trkpt>
      <trkpt lat="48.68285" lon="-1.96773">
        <ele>28.98</ele>
        <time>2021-07-31T16:21:27Z</time>
      </trkpt>
      <trkpt lat="48.68221" lon="-1.96792">
        <ele>28.5</ele>
        <time>2021-07-31T16:21:42Z</time>
      </trkpt>
      <trkpt lat="48.6821" lon="-1.96794">
        <ele>28.98</ele>
        <time>2021-07-31T16:21:55Z</time>
      </trkpt>
      <trkpt lat="48.68186" lon="-1.96802">
        <ele>29.94</ele>
        <time>2021-07-31T16:22:09Z</time>
      </trkpt>
      <trkpt lat="48.68182" lon="-1.9685">
        <ele>29.94</ele>
        <time>2021-07-31T16:22:18Z</time>
      </trkpt>
      <trkpt lat="48.68157" lon="-1.96973">
        <ele>28.5</ele>
        <time>2021-07-31T16:22:29Z</time>
      </trkpt>
      <trkpt lat="48.68104" lon="-1.97192">
        <ele>26.09</ele>
        <time>2021-07-31T16:22:46Z</time>
      </trkpt>
      <trkpt lat="48.68047" lon="-1.97435">
        <ele>21.77</ele>
        <time>2021-07-31T16:23:01Z</time>
      </trkpt>
      <trkpt lat="48.68039" lon="-1.97596">
        <ele>21.77</ele>
        <time>2021-07-31T16:23:13Z</time>
      </trkpt>
      <trkpt lat="48.68022" lon="-1.97689">
        <ele>23.21</ele>
        <time>2021-07-31T16:23:20Z</time>
      </trkpt>
      <trkpt lat="48.68017" lon="-1.977">
        <ele>22.73</ele>
        <time>2021-07-31T16:23:21Z</time>
      </trkpt>
      <trkpt lat="48.68013" lon="-1.97712">
        <ele>22.25</ele>
        <time>2021-07-31T16:23:22Z</time>
      </trkpt>
      <trkpt lat="48.68008" lon="-1.97724">
        <ele>21.29</ele>
        <time>2021-07-31T16:23:23Z</time>
      </trkpt>
      <trkpt lat="48.68001" lon="-1.97733">
        <ele>20.81</ele>
        <time>2021-07-31T16:23:24Z</time>
      </trkpt>
      <trkpt lat="48.67995" lon="-1.97741">
        <ele>20.32</ele>
        <time>2021-07-31T16:23:25Z</time>
      </trkpt>
      <trkpt lat="48.67987" lon="-1.97749">
        <ele>19.84</ele>
        <time>2021-07-31T16:23:26Z</time>
      </trkpt>
      <trkpt lat="48.67871" lon="-1.97865">
        <ele>23.21</ele>
        <time>2021-07-31T16:23:39Z</time>
      </trkpt>
      <trkpt lat="48.67854" lon="-1.9788">
        <ele>23.69</ele>
        <time>2021-07-31T16:23:41Z</time>
      </trkpt>
      <trkpt lat="48.67846" lon="-1.97885">
        <ele>23.21</ele>
        <time>2021-07-31T16:23:42Z</time>
      </trkpt>
      <trkpt lat="48.67836" lon="-1.9789">
        <ele>23.69</ele>
        <time>2021-07-31T16:23:43Z</time>
      </trkpt>
      <trkpt lat="48.67726" lon="-1.97922">
        <ele>16.48</ele>
        <time>2021-07-31T16:23:56Z</time>
      </trkpt>
      <trkpt lat="48.67678" lon="-1.97937">
        <ele>13.6</ele>
        <time>2021-07-31T16:24:05Z</time>
      </trkpt>
      <trkpt lat="48.67672" lon="-1.97938">
        <ele>12.15</ele>
        <time>2021-07-31T16:24:19Z</time>
      </trkpt>
      <trkpt lat="48.67643" lon="-1.97951">
        <ele>10.71</ele>
        <time>2021-07-31T16:24:26Z</time>
      </trkpt>
      <trkpt lat="48.67559" lon="-1.97999">
        <ele>15.04</ele>
        <time>2021-07-31T16:24:37Z</time>
      </trkpt>
      <trkpt lat="48.67466" lon="-1.98054">
        <ele>18.88</ele>
        <time>2021-07-31T16:24:48Z</time>
      </trkpt>
    </trkseg>
  </trk>
</gpx>